<?xml version="1.0" encoding="UTF-8" standalone="no" ?>
<gpx xmlns="http://www.topografix.com/GPX/1/1" xmlns:xsi="http://www.w3.org/2001/XMLSchema-instance" xsi:schemaLocation="http://www.topografix.com/GPX/1/1 http://www.topografix.com/GPX/1/1/gpx.xsd" version="1.1" creator="VisuGPX - https://www.visugpx.com">
  <metadata>
    <name>Plogastel Gourlizon boucle</name>
  </metadata>
  <trk>
    <name><![CDATA[13356652-Plogastel gourlizon boucle]]></name>
    <trkseg>
      <trkpt lat="47.98221" lon="-4.26864">
        <ele>101</ele>
        <time>2021-07-08T07:50:00Z</time>
      </trkpt>
      <trkpt lat="47.98212" lon="-4.27004">
        <ele>105</ele>
        <time>2021-07-08T07:50:22Z</time>
      </trkpt>
      <trkpt lat="47.98269" lon="-4.27239">
        <ele>105</ele>
        <time>2021-07-08T07:51:01Z</time>
      </trkpt>
      <trkpt lat="47.98301" lon="-4.27345">
        <ele>102</ele>
        <time>2021-07-08T07:51:19Z</time>
      </trkpt>
      <trkpt lat="47.98374" lon="-4.27446">
        <ele>101</ele>
        <time>2021-07-08T07:51:42Z</time>
      </trkpt>
      <trkpt lat="47.98451" lon="-4.27414">
        <ele>109</ele>
        <time>2021-07-08T07:52:01Z</time>
      </trkpt>
      <trkpt lat="47.98414" lon="-4.27488">
        <ele>102</ele>
        <time>2021-07-08T07:52:16Z</time>
      </trkpt>
      <trkpt lat="47.98353" lon="-4.27611">
        <ele>84</ele>
        <time>2021-07-08T07:52:40Z</time>
      </trkpt>
      <trkpt lat="47.98358" lon="-4.27726">
        <ele>82</ele>
        <time>2021-07-08T07:52:58Z</time>
      </trkpt>
      <trkpt lat="47.98518" lon="-4.27946">
        <ele>85</ele>
        <time>2021-07-08T07:53:48Z</time>
      </trkpt>
      <trkpt lat="47.98668" lon="-4.28129">
        <ele>94</ele>
        <time>2021-07-08T07:54:34Z</time>
      </trkpt>
      <trkpt lat="47.98788" lon="-4.28253">
        <ele>95</ele>
        <time>2021-07-08T07:55:08Z</time>
      </trkpt>
      <trkpt lat="47.98705" lon="-4.28487">
        <ele>85</ele>
        <time>2021-07-08T07:55:49Z</time>
      </trkpt>
      <trkpt lat="47.98915" lon="-4.28844">
        <ele>88</ele>
        <time>2021-07-08T07:57:03Z</time>
      </trkpt>
      <trkpt lat="47.99142" lon="-4.29072">
        <ele>95</ele>
        <time>2021-07-08T07:58:07Z</time>
      </trkpt>
      <trkpt lat="47.99091" lon="-4.29153">
        <ele>94</ele>
        <time>2021-07-08T07:58:25Z</time>
      </trkpt>
      <trkpt lat="47.99164" lon="-4.2931">
        <ele>96</ele>
        <time>2021-07-08T07:58:54Z</time>
      </trkpt>
      <trkpt lat="47.99143" lon="-4.29456">
        <ele>100</ele>
        <time>2021-07-08T07:59:18Z</time>
      </trkpt>
      <trkpt lat="47.99216" lon="-4.29591">
        <ele>102</ele>
        <time>2021-07-08T07:59:45Z</time>
      </trkpt>
      <trkpt lat="47.99226" lon="-4.29821">
        <ele>109</ele>
        <time>2021-07-08T08:00:21Z</time>
      </trkpt>
      <trkpt lat="47.99208" lon="-4.29971">
        <ele>111</ele>
        <time>2021-07-08T08:00:45Z</time>
      </trkpt>
      <trkpt lat="47.99238" lon="-4.29988">
        <ele>111</ele>
        <time>2021-07-08T08:00:52Z</time>
      </trkpt>
      <trkpt lat="47.9934" lon="-4.30381">
        <ele>124</ele>
        <time>2021-07-08T08:01:58Z</time>
      </trkpt>
      <trkpt lat="47.99294" lon="-4.30668">
        <ele>129</ele>
        <time>2021-07-08T08:02:44Z</time>
      </trkpt>
      <trkpt lat="47.99299" lon="-4.30784">
        <ele>122</ele>
        <time>2021-07-08T08:03:02Z</time>
      </trkpt>
      <trkpt lat="47.99343" lon="-4.30879">
        <ele>122</ele>
        <time>2021-07-08T08:03:20Z</time>
      </trkpt>
      <trkpt lat="47.99343" lon="-4.31587">
        <ele>121</ele>
        <time>2021-07-08T08:05:11Z</time>
      </trkpt>
      <trkpt lat="47.99423" lon="-4.31685">
        <ele>120</ele>
        <time>2021-07-08T08:05:35Z</time>
      </trkpt>
      <trkpt lat="47.99374" lon="-4.3175">
        <ele>117</ele>
        <time>2021-07-08T08:05:51Z</time>
      </trkpt>
      <trkpt lat="47.99116" lon="-4.31711">
        <ele>107</ele>
        <time>2021-07-08T08:06:51Z</time>
      </trkpt>
      <trkpt lat="47.99084" lon="-4.31887">
        <ele>106</ele>
        <time>2021-07-08T08:07:20Z</time>
      </trkpt>
      <trkpt lat="47.99236" lon="-4.31975">
        <ele>105</ele>
        <time>2021-07-08T08:07:58Z</time>
      </trkpt>
      <trkpt lat="47.99257" lon="-4.32031">
        <ele>103</ele>
        <time>2021-07-08T08:08:08Z</time>
      </trkpt>
      <trkpt lat="47.99279" lon="-4.31973">
        <ele>104</ele>
        <time>2021-07-08T08:08:18Z</time>
      </trkpt>
      <trkpt lat="47.99621" lon="-4.32145">
        <ele>109</ele>
        <time>2021-07-08T08:09:42Z</time>
      </trkpt>
      <trkpt lat="47.99791" lon="-4.32215">
        <ele>114</ele>
        <time>2021-07-08T08:10:24Z</time>
      </trkpt>
      <trkpt lat="47.99964" lon="-4.32185">
        <ele>114</ele>
        <time>2021-07-08T08:11:04Z</time>
      </trkpt>
      <trkpt lat="47.9994" lon="-4.32064">
        <ele>112</ele>
        <time>2021-07-08T08:11:24Z</time>
      </trkpt>
      <trkpt lat="48.00173" lon="-4.32204">
        <ele>107</ele>
        <time>2021-07-08T08:12:23Z</time>
      </trkpt>
      <trkpt lat="48.0063" lon="-4.32568">
        <ele>112</ele>
        <time>2021-07-08T08:14:24Z</time>
      </trkpt>
      <trkpt lat="48.00675" lon="-4.32459">
        <ele>109</ele>
        <time>2021-07-08T08:14:44Z</time>
      </trkpt>
      <trkpt lat="48.00671" lon="-4.32274">
        <ele>106</ele>
        <time>2021-07-08T08:15:12Z</time>
      </trkpt>
      <trkpt lat="48.0075" lon="-4.32168">
        <ele>103</ele>
        <time>2021-07-08T08:15:37Z</time>
      </trkpt>
      <trkpt lat="48.00934" lon="-4.32425">
        <ele>102</ele>
        <time>2021-07-08T08:16:36Z</time>
      </trkpt>
      <trkpt lat="48.01012" lon="-4.32553">
        <ele>102</ele>
        <time>2021-07-08T08:17:03Z</time>
      </trkpt>
      <trkpt lat="48.01148" lon="-4.32498">
        <ele>99</ele>
        <time>2021-07-08T08:17:36Z</time>
      </trkpt>
      <trkpt lat="48.01314" lon="-4.32474">
        <ele>93</ele>
        <time>2021-07-08T08:18:15Z</time>
      </trkpt>
      <trkpt lat="48.01318" lon="-4.32556">
        <ele>93</ele>
        <time>2021-07-08T08:18:28Z</time>
      </trkpt>
      <trkpt lat="48.01375" lon="-4.32674">
        <ele>93</ele>
        <time>2021-07-08T08:18:51Z</time>
      </trkpt>
      <trkpt lat="48.01519" lon="-4.32705">
        <ele>94</ele>
        <time>2021-07-08T08:19:25Z</time>
      </trkpt>
      <trkpt lat="48.01582" lon="-4.3275">
        <ele>91</ele>
        <time>2021-07-08T08:19:41Z</time>
      </trkpt>
      <trkpt lat="48.01637" lon="-4.32905">
        <ele>83</ele>
        <time>2021-07-08T08:20:08Z</time>
      </trkpt>
      <trkpt lat="48.01746" lon="-4.32923">
        <ele>73</ele>
        <time>2021-07-08T08:20:34Z</time>
      </trkpt>
      <trkpt lat="48.01728" lon="-4.32969">
        <ele>73</ele>
        <time>2021-07-08T08:20:42Z</time>
      </trkpt>
      <trkpt lat="48.01786" lon="-4.32928">
        <ele>71</ele>
        <time>2021-07-08T08:20:57Z</time>
      </trkpt>
      <trkpt lat="48.0192" lon="-4.32915">
        <ele>68</ele>
        <time>2021-07-08T08:21:29Z</time>
      </trkpt>
      <trkpt lat="48.02059" lon="-4.33024">
        <ele>64</ele>
        <time>2021-07-08T08:22:05Z</time>
      </trkpt>
      <trkpt lat="48.02159" lon="-4.33016">
        <ele>60</ele>
        <time>2021-07-08T08:22:29Z</time>
      </trkpt>
      <trkpt lat="48.02192" lon="-4.32951">
        <ele>59</ele>
        <time>2021-07-08T08:22:41Z</time>
      </trkpt>
      <trkpt lat="48.02166" lon="-4.32748">
        <ele>61</ele>
        <time>2021-07-08T08:23:14Z</time>
      </trkpt>
      <trkpt lat="48.02152" lon="-4.32636">
        <ele>62</ele>
        <time>2021-07-08T08:23:31Z</time>
      </trkpt>
      <trkpt lat="48.02163" lon="-4.32607">
        <ele>59</ele>
        <time>2021-07-08T08:23:37Z</time>
      </trkpt>
      <trkpt lat="48.02161" lon="-4.32514">
        <ele>57</ele>
        <time>2021-07-08T08:23:51Z</time>
      </trkpt>
      <trkpt lat="48.0217" lon="-4.32462">
        <ele>54</ele>
        <time>2021-07-08T08:24:00Z</time>
      </trkpt>
      <trkpt lat="48.02168" lon="-4.32284">
        <ele>56</ele>
        <time>2021-07-08T08:24:27Z</time>
      </trkpt>
      <trkpt lat="48.02086" lon="-4.32271">
        <ele>66</ele>
        <time>2021-07-08T08:24:47Z</time>
      </trkpt>
      <trkpt lat="48.02083" lon="-4.32224">
        <ele>67</ele>
        <time>2021-07-08T08:24:54Z</time>
      </trkpt>
      <trkpt lat="48.02115" lon="-4.32042">
        <ele>65</ele>
        <time>2021-07-08T08:25:23Z</time>
      </trkpt>
      <trkpt lat="48.02092" lon="-4.31994">
        <ele>69</ele>
        <time>2021-07-08T08:25:33Z</time>
      </trkpt>
      <trkpt lat="48.02068" lon="-4.31819">
        <ele>73</ele>
        <time>2021-07-08T08:26:00Z</time>
      </trkpt>
      <trkpt lat="48.01975" lon="-4.31778">
        <ele>95</ele>
        <time>2021-07-08T08:26:23Z</time>
      </trkpt>
      <trkpt lat="48.01988" lon="-4.31648">
        <ele>88</ele>
        <time>2021-07-08T08:26:44Z</time>
      </trkpt>
      <trkpt lat="48.02038" lon="-4.31468">
        <ele>75</ele>
        <time>2021-07-08T08:27:14Z</time>
      </trkpt>
      <trkpt lat="48.02026" lon="-4.31374">
        <ele>69</ele>
        <time>2021-07-08T08:27:29Z</time>
      </trkpt>
      <trkpt lat="48.01936" lon="-4.31292">
        <ele>75</ele>
        <time>2021-07-08T08:27:54Z</time>
      </trkpt>
      <trkpt lat="48.01891" lon="-4.31251">
        <ele>76</ele>
        <time>2021-07-08T08:28:06Z</time>
      </trkpt>
      <trkpt lat="48.01663" lon="-4.30887">
        <ele>77</ele>
        <time>2021-07-08T08:29:24Z</time>
      </trkpt>
      <trkpt lat="48.0143" lon="-4.30419">
        <ele>77</ele>
        <time>2021-07-08T08:30:55Z</time>
      </trkpt>
      <trkpt lat="48.01505" lon="-4.30407">
        <ele>71</ele>
        <time>2021-07-08T08:31:13Z</time>
      </trkpt>
      <trkpt lat="48.01526" lon="-4.30128">
        <ele>77</ele>
        <time>2021-07-08T08:31:56Z</time>
      </trkpt>
      <trkpt lat="48.01738" lon="-4.29813">
        <ele>82</ele>
        <time>2021-07-08T08:33:06Z</time>
      </trkpt>
      <trkpt lat="48.01968" lon="-4.29692">
        <ele>104</ele>
        <time>2021-07-08T08:34:03Z</time>
      </trkpt>
      <trkpt lat="48.02071" lon="-4.2916">
        <ele>106</ele>
        <time>2021-07-08T08:35:30Z</time>
      </trkpt>
      <trkpt lat="48.02359" lon="-4.29081">
        <ele>121</ele>
        <time>2021-07-08T08:36:38Z</time>
      </trkpt>
      <trkpt lat="48.02368" lon="-4.2879">
        <ele>115</ele>
        <time>2021-07-08T08:37:24Z</time>
      </trkpt>
      <trkpt lat="48.02177" lon="-4.28541">
        <ele>88</ele>
        <time>2021-07-08T08:38:23Z</time>
      </trkpt>
      <trkpt lat="48.02181" lon="-4.28013">
        <ele>98</ele>
        <time>2021-07-08T08:39:45Z</time>
      </trkpt>
      <trkpt lat="48.02205" lon="-4.276">
        <ele>104</ele>
        <time>2021-07-08T08:40:50Z</time>
      </trkpt>
      <trkpt lat="48.02197" lon="-4.27437">
        <ele>113</ele>
        <time>2021-07-08T08:41:16Z</time>
      </trkpt>
      <trkpt lat="48.02031" lon="-4.27282">
        <ele>118</ele>
        <time>2021-07-08T08:42:01Z</time>
      </trkpt>
      <trkpt lat="48.01949" lon="-4.26217">
        <ele>128</ele>
        <time>2021-07-08T08:44:49Z</time>
      </trkpt>
      <trkpt lat="48.01882" lon="-4.26168">
        <ele>128</ele>
        <time>2021-07-08T08:45:06Z</time>
      </trkpt>
      <trkpt lat="48.01846" lon="-4.26109">
        <ele>129</ele>
        <time>2021-07-08T08:45:19Z</time>
      </trkpt>
      <trkpt lat="48.01858" lon="-4.26045">
        <ele>129</ele>
        <time>2021-07-08T08:45:29Z</time>
      </trkpt>
      <trkpt lat="48.01866" lon="-4.25886">
        <ele>130</ele>
        <time>2021-07-08T08:45:54Z</time>
      </trkpt>
      <trkpt lat="48.01629" lon="-4.25834">
        <ele>119</ele>
        <time>2021-07-08T08:46:50Z</time>
      </trkpt>
      <trkpt lat="48.01565" lon="-4.25639">
        <ele>101</ele>
        <time>2021-07-08T08:47:24Z</time>
      </trkpt>
      <trkpt lat="48.01453" lon="-4.25403">
        <ele>90</ele>
        <time>2021-07-08T08:48:09Z</time>
      </trkpt>
      <trkpt lat="48.0147" lon="-4.25051">
        <ele>99</ele>
        <time>2021-07-08T08:49:04Z</time>
      </trkpt>
      <trkpt lat="48.01361" lon="-4.25006">
        <ele>101</ele>
        <time>2021-07-08T08:49:31Z</time>
      </trkpt>
      <trkpt lat="48.01357" lon="-4.24906">
        <ele>101</ele>
        <time>2021-07-08T08:49:46Z</time>
      </trkpt>
      <trkpt lat="48.0142" lon="-4.2429">
        <ele>122</ele>
        <time>2021-07-08T08:51:24Z</time>
      </trkpt>
      <trkpt lat="48.01207" lon="-4.24272">
        <ele>108</ele>
        <time>2021-07-08T08:52:13Z</time>
      </trkpt>
      <trkpt lat="48.0112" lon="-4.23888">
        <ele>97</ele>
        <time>2021-07-08T08:53:17Z</time>
      </trkpt>
      <trkpt lat="48.00813" lon="-4.23759">
        <ele>117</ele>
        <time>2021-07-08T08:54:31Z</time>
      </trkpt>
      <trkpt lat="48.00867" lon="-4.2351">
        <ele>114</ele>
        <time>2021-07-08T08:55:12Z</time>
      </trkpt>
      <trkpt lat="48.00752" lon="-4.23424">
        <ele>122</ele>
        <time>2021-07-08T08:55:42Z</time>
      </trkpt>
      <trkpt lat="48.00672" lon="-4.23467">
        <ele>122</ele>
        <time>2021-07-08T08:56:02Z</time>
      </trkpt>
      <trkpt lat="48.00399" lon="-4.2342">
        <ele>145</ele>
        <time>2021-07-08T08:57:06Z</time>
      </trkpt>
      <trkpt lat="48.0013" lon="-4.24624">
        <ele>135</ele>
        <time>2021-07-08T09:00:24Z</time>
      </trkpt>
      <trkpt lat="48.00108" lon="-4.24713">
        <ele>134</ele>
        <time>2021-07-08T09:00:39Z</time>
      </trkpt>
      <trkpt lat="48.00007" lon="-4.24709">
        <ele>132</ele>
        <time>2021-07-08T09:01:03Z</time>
      </trkpt>
      <trkpt lat="47.99958" lon="-4.249">
        <ele>131</ele>
        <time>2021-07-08T09:01:35Z</time>
      </trkpt>
      <trkpt lat="47.99904" lon="-4.24885">
        <ele>135</ele>
        <time>2021-07-08T09:01:48Z</time>
      </trkpt>
      <trkpt lat="47.99829" lon="-4.24926">
        <ele>139</ele>
        <time>2021-07-08T09:02:06Z</time>
      </trkpt>
      <trkpt lat="47.9976" lon="-4.24969">
        <ele>144</ele>
        <time>2021-07-08T09:02:24Z</time>
      </trkpt>
      <trkpt lat="47.99587" lon="-4.25124">
        <ele>142</ele>
        <time>2021-07-08T09:03:11Z</time>
      </trkpt>
      <trkpt lat="47.99503" lon="-4.24978">
        <ele>144</ele>
        <time>2021-07-08T09:03:41Z</time>
      </trkpt>
      <trkpt lat="47.99463" lon="-4.24969">
        <ele>143</ele>
        <time>2021-07-08T09:03:50Z</time>
      </trkpt>
      <trkpt lat="47.99348" lon="-4.25411">
        <ele>143</ele>
        <time>2021-07-08T09:05:05Z</time>
      </trkpt>
      <trkpt lat="47.99345" lon="-4.26055">
        <ele>128</ele>
        <time>2021-07-08T09:06:45Z</time>
      </trkpt>
      <trkpt lat="47.9917" lon="-4.26569">
        <ele>122</ele>
        <time>2021-07-08T09:08:15Z</time>
      </trkpt>
      <trkpt lat="47.99035" lon="-4.26457">
        <ele>127</ele>
        <time>2021-07-08T09:08:51Z</time>
      </trkpt>
      <trkpt lat="47.98934" lon="-4.26939">
        <ele>115</ele>
        <time>2021-07-08T09:10:10Z</time>
      </trkpt>
      <trkpt lat="47.98727" lon="-4.26844">
        <ele>110</ele>
        <time>2021-07-08T09:11:01Z</time>
      </trkpt>
      <trkpt lat="47.98632" lon="-4.26945">
        <ele>106</ele>
        <time>2021-07-08T09:11:28Z</time>
      </trkpt>
      <trkpt lat="47.98541" lon="-4.27141">
        <ele>108</ele>
        <time>2021-07-08T09:12:05Z</time>
      </trkpt>
      <trkpt lat="47.98437" lon="-4.27113">
        <ele>113</ele>
        <time>2021-07-08T09:12:30Z</time>
      </trkpt>
      <trkpt lat="47.9837" lon="-4.2708">
        <ele>113</ele>
        <time>2021-07-08T09:12:47Z</time>
      </trkpt>
      <trkpt lat="47.98294" lon="-4.27039">
        <ele>111</ele>
        <time>2021-07-08T09:13:05Z</time>
      </trkpt>
      <trkpt lat="47.98227" lon="-4.26856">
        <ele>101</ele>
        <time>2021-07-08T09:13:38Z</time>
      </trkpt>
    </trkseg>
  </trk>
</gpx>